sensor_id;sensor_type;location;lat;lon;timestamp;temperature;humidity
38936;DHT22;25541;47.458;9.644;2022-08-19T02:47:53;18.30;99.90
38936;DHT22;25541;47.458;9.644;2022-08-19T02:50:18;18.30;99.90
38936;DHT22;25541;47.458;9.644;2022-08-19T02:52:44;18.30;99.90
38936;DHT22;25541;47.458;9.644;2022-08-19T02:55:10;18.30;99.90
38936;DHT22;25541;47.458;9.644;2022-08-19T02:57:36;18.20;99.90
38936;DHT22;25541;47.458;9.644;2022-08-19T03:00:05;18.10;99.90
38936;DHT22;25541;47.458;9.644;2022-08-19T03:02:31;18.10;99.90
38936;DHT22;25541;47.458;9.644;2022-08-19T03:04:57;18.10;99.90
38936;DHT22;25541;47.458;9.644;2022-08-19T03:07:23;18.10;99.90
38936;DHT22;25541;47.458;9.644;2022-08-19T03:09:48;18.00;99.90
38936;DHT22;25541;47.458;9.644;2022-08-19T03:12:14;18.20;99.90
38936;DHT22;25541;47.458;9.644;2022-08-19T03:14:39;18.20;99.90
38936;DHT22;25541;47.458;9.644;2022-08-19T03:17:05;18.20;99.90
38936;DHT22;25541;47.458;9.644;2022-08-19T03:19:31;18.20;99.90
38936;DHT22;25541;47.458;9.644;2022-08-19T03:21:57;18.10;99.90
38936;DHT22;25541;47.458;9.644;2022-08-19T03:24:23;18.10;99.90
38936;DHT22;25541;47.458;9.644;2022-08-19T03:26:53;18.20;99.90
38936;DHT22;25541;47.458;9.644;2022-08-19T03:29:23;18.20;99.90
38936;DHT22;25541;47.458;9.644;2022-08-19T03:31:49;18.30;99.90
38936;DHT22;25541;47.458;9.644;2022-08-19T03:34:37;18.40;99.90
38936;DHT22;25541;47.458;9.644;2022-08-19T03:37:07;18.40;99.90
38936;DHT22;25541;47.458;9.644;2022-08-19T03:39:35;18.40;99.90
38936;DHT22;25541;47.458;9.644;2022-08-19T03:42:01;18.50;99.90
38936;DHT22;25541;47.458;9.644;2022-08-19T03:44:29;18.50;99.90
38936;DHT22;25541;47.458;9.644;2022-08-19T03:46:57;18.30;99.90
38936;DHT22;25541;47.458;9.644;2022-08-19T03:49:26;18.10;99.90
38936;DHT22;25541;47.458;9.644;2022-08-19T03:51:53;18.20;99.90
38936;DHT22;25541;47.458;9.644;2022-08-19T03:54:21;18.20;99.90
38936;DHT22;25541;47.458;9.644;2022-08-19T03:56:50;18.20;99.90
38936;DHT22;25541;47.458;9.644;2022-08-19T03:59:31;18.30;99.90
38936;DHT22;25541;47.458;9.644;2022-08-19T04:02:00;18.30;99.90
38936;DHT22;25541;47.458;9.644;2022-08-19T04:04:26;18.40;99.90
38936;DHT22;25541;47.458;9.644;2022-08-19T04:06:52;18.40;99.90
38936;DHT22;25541;47.458;9.644;2022-08-19T04:09:19;18.40;99.90
38936;DHT22;25541;47.458;9.644;2022-08-19T04:11:48;18.40;99.90
38936;DHT22;25541;47.458;9.644;2022-08-19T04:14:18;18.40;99.90
38936;DHT22;25541;47.458;9.644;2022-08-19T04:16:45;18.30;99.90
38936;DHT22;25541;47.458;9.644;2022-08-19T04:19:12;18.30;99.90
38936;DHT22;25541;47.458;9.644;2022-08-19T04:21:39;18.30;99.90
38936;DHT22;25541;47.458;9.644;2022-08-19T04:24:05;18.30;99.90
38936;DHT22;25541;47.458;9.644;2022-08-19T04:26:34;18.30;99.90
38936;DHT22;25541;47.458;9.644;2022-08-19T04:29:03;18.30;99.90
38936;DHT22;25541;47.458;9.644;2022-08-19T04:31:30;18.30;99.90
38936;DHT22;25541;47.458;9.644;2022-08-19T04:33:57;18.30;99.90
38936;DHT22;25541;47.458;9.644;2022-08-19T04:36:27;18.30;99.90
38936;DHT22;25541;47.458;9.644;2022-08-19T04:38:55;18.40;99.90
38936;DHT22;25541;47.458;9.644;2022-08-19T04:41:22;18.30;99.90
38936;DHT22;25541;47.458;9.644;2022-08-19T04:44:07;18.30;99.90
38936;DHT22;25541;47.458;9.644;2022-08-19T04:46:33;18.30;99.90
38936;DHT22;25541;47.458;9.644;2022-08-19T04:49:00;18.30;99.90
38936;DHT22;25541;47.458;9.644;2022-08-19T04:51:27;18.30;99.90
38936;DHT22;25541;47.458;9.644;2022-08-19T04:53:53;18.30;99.90
38936;DHT22;25541;47.458;9.644;2022-08-19T04:56:20;18.30;99.90
38936;DHT22;25541;47.458;9.644;2022-08-19T04:58:48;18.40;99.90
38936;DHT22;25541;47.458;9.644;2022-08-19T05:01:22;18.40;99.90
38936;DHT22;25541;47.458;9.644;2022-08-19T05:03:48;18.40;99.90
38936;DHT22;25541;47.458;9.644;2022-08-19T05:06:16;18.40;99.90
38936;DHT22;25541;47.458;9.644;2022-08-19T05:08:44;18.40;99.90
38936;DHT22;25541;47.458;9.644;2022-08-19T05:11:13;18.40;99.90
38936;DHT22;25541;47.458;9.644;2022-08-19T05:13:39;18.40;99.90
38936;DHT22;25541;47.458;9.644;2022-08-19T05:16:05;18.40;99.90
38936;DHT22;25541;47.458;9.644;2022-08-19T05:18:31;18.40;99.90
38936;DHT22;25541;47.458;9.644;2022-08-19T05:21:17;18.30;99.90
38936;DHT22;25541;47.458;9.644;2022-08-19T05:24:03;18.10;99.90
38936;DHT22;25541;47.458;9.644;2022-08-19T05:26:31;18.00;99.90
38936;DHT22;25541;47.458;9.644;2022-08-19T05:28:57;17.90;99.90
38936;DHT22;25541;47.458;9.644;2022-08-19T05:31:22;17.90;99.90
38936;DHT22;25541;47.458;9.644;2022-08-19T05:33:48;17.80;99.90
38936;DHT22;25541;47.458;9.644;2022-08-19T05:36:15;17.90;99.90
38936;DHT22;25541;47.458;9.644;2022-08-19T05:38:41;18.00;99.90
38936;DHT22;25541;47.458;9.644;2022-08-19T05:41:08;17.80;99.90
38936;DHT22;25541;47.458;9.644;2022-08-19T05:43:34;17.80;99.90
38936;DHT22;25541;47.458;9.644;2022-08-19T05:46:00;17.90;99.90
38936;DHT22;25541;47.458;9.644;2022-08-19T05:48:26;17.90;99.90
38936;DHT22;25541;47.458;9.644;2022-08-19T05:50:52;17.50;99.90
38936;DHT22;25541;47.458;9.644;2022-08-19T05:53:18;17.30;99.90
38936;DHT22;25541;47.458;9.644;2022-08-19T05:55:44;17.50;99.90
38936;DHT22;25541;47.458;9.644;2022-08-19T05:58:09;17.40;99.90
38936;DHT22;25541;47.458;9.644;2022-08-19T06:00:36;17.40;99.90
38936;DHT22;25541;47.458;9.644;2022-08-19T06:03:03;17.40;99.90
38936;DHT22;25541;47.458;9.644;2022-08-19T06:05:30;17.50;99.90
38936;DHT22;25541;47.458;9.644;2022-08-19T06:07:56;17.40;99.90
38936;DHT22;25541;47.458;9.644;2022-08-19T06:10:22;17.30;99.90
38936;DHT22;25541;47.458;9.644;2022-08-19T06:12:48;17.40;99.90
38936;DHT22;25541;47.458;9.644;2022-08-19T06:15:14;17.50;99.90
38936;DHT22;25541;47.458;9.644;2022-08-19T06:17:41;17.50;99.90
38936;DHT22;25541;47.458;9.644;2022-08-19T06:20:09;17.50;99.90
38936;DHT22;25541;47.458;9.644;2022-08-19T06:22:48;17.50;99.90
38936;DHT22;25541;47.458;9.644;2022-08-19T06:25:17;17.50;99.90
38936;DHT22;25541;47.458;9.644;2022-08-19T06:27:43;17.50;99.90
38936;DHT22;25541;47.458;9.644;2022-08-19T06:30:10;17.40;99.90
38936;DHT22;25541;47.458;9.644;2022-08-19T06:32:37;17.50;99.90
38936;DHT22;25541;47.458;9.644;2022-08-19T06:35:03;17.60;99.90
38936;DHT22;25541;47.458;9.644;2022-08-19T06:37:29;17.60;99.90
38936;DHT22;25541;47.458;9.644;2022-08-19T06:39:55;17.60;99.90
38936;DHT22;25541;47.458;9.644;2022-08-19T06:42:21;17.70;99.90
38936;DHT22;25541;47.458;9.644;2022-08-19T06:44:47;17.70;99.90
38936;DHT22;25541;47.458;9.644;2022-08-19T06:47:17;17.70;99.90
38936;DHT22;25541;47.458;9.644;2022-08-19T06:49:44;17.70;99.90
38936;DHT22;25541;47.458;9.644;2022-08-19T06:52:10;17.70;99.90
38936;DHT22;25541;47.458;9.644;2022-08-19T06:54:40;17.70;99.90
38936;DHT22;25541;47.458;9.644;2022-08-19T06:57:08;17.80;99.90
38936;DHT22;25541;47.458;9.644;2022-08-19T06:59:38;17.80;99.90
38936;DHT22;25541;47.458;9.644;2022-08-19T07:02:06;17.80;99.90
38936;DHT22;25541;47.458;9.644;2022-08-19T07:04:33;17.80;99.90
38936;DHT22;25541;47.458;9.644;2022-08-19T07:07:08;17.80;99.90
38936;DHT22;25541;47.458;9.644;2022-08-19T07:09:36;17.70;99.90
38936;DHT22;25541;47.458;9.644;2022-08-19T07:12:04;17.60;99.90
38936;DHT22;25541;47.458;9.644;2022-08-19T07:14:32;17.70;99.90
38936;DHT22;25541;47.458;9.644;2022-08-19T07:17:04;17.70;99.90
38936;DHT22;25541;47.458;9.644;2022-08-19T07:19:30;17.70;99.90
38936;DHT22;25541;47.458;9.644;2022-08-19T07:21:57;17.80;99.90
38936;DHT22;25541;47.458;9.644;2022-08-19T07:24:25;17.80;99.90
38936;DHT22;25541;47.458;9.644;2022-08-19T07:26:54;17.90;99.90
38936;DHT22;25541;47.458;9.644;2022-08-19T07:29:21;17.90;99.90
38936;DHT22;25541;47.458;9.644;2022-08-19T07:31:54;18.00;99.90
38936;DHT22;25541;47.458;9.644;2022-08-19T07:34:23;17.20;99.90
38936;DHT22;25541;47.458;9.644;2022-08-19T07:36:49;16.90;99.90
38936;DHT22;25541;47.458;9.644;2022-08-19T07:39:24;16.90;99.90
38936;DHT22;25541;47.458;9.644;2022-08-19T07:41:50;16.90;99.90
38936;DHT22;25541;47.458;9.644;2022-08-19T07:44:19;16.80;99.90
38936;DHT22;25541;47.458;9.644;2022-08-19T07:46:48;17.10;99.90
38936;DHT22;25541;47.458;9.644;2022-08-19T07:49:15;17.10;99.90
38936;DHT22;25541;47.458;9.644;2022-08-19T07:51:52;17.10;99.90
38936;DHT22;25541;47.458;9.644;2022-08-19T07:54:20;17.20;99.90
38936;DHT22;25541;47.458;9.644;2022-08-19T07:56:46;17.30;99.90
38936;DHT22;25541;47.458;9.644;2022-08-19T07:59:12;17.10;99.90
38936;DHT22;25541;47.458;9.644;2022-08-19T08:01:39;17.30;99.90
38936;DHT22;25541;47.458;9.644;2022-08-19T08:04:06;17.30;99.90
38936;DHT22;25541;47.458;9.644;2022-08-19T08:06:51;17.20;99.90
38936;DHT22;25541;47.458;9.644;2022-08-19T08:09:38;17.30;99.90
38936;DHT22;25541;47.458;9.644;2022-08-19T08:12:07;17.10;99.90
38936;DHT22;25541;47.458;9.644;2022-08-19T08:14:46;17.20;99.90
38936;DHT22;25541;47.458;9.644;2022-08-19T08:17:14;17.30;99.90
38936;DHT22;25541;47.458;9.644;2022-08-19T08:19:41;17.10;99.90
38936;DHT22;25541;47.458;9.644;2022-08-19T08:22:08;17.10;99.90
38936;DHT22;25541;47.458;9.644;2022-08-19T08:24:54;17.10;99.90
38936;DHT22;25541;47.458;9.644;2022-08-19T08:27:20;17.10;99.90
38936;DHT22;25541;47.458;9.644;2022-08-19T08:29:45;17.00;99.90
38936;DHT22;25541;47.458;9.644;2022-08-19T08:32:11;17.20;99.90
38936;DHT22;25541;47.458;9.644;2022-08-19T08:34:37;17.30;99.90
38936;DHT22;25541;47.458;9.644;2022-08-19T08:37:02;17.30;99.90
38936;DHT22;25541;47.458;9.644;2022-08-19T08:39:28;17.20;99.90
38936;DHT22;25541;47.458;9.644;2022-08-19T08:42:32;17.30;99.90
38936;DHT22;25541;47.458;9.644;2022-08-19T08:45:00;17.20;99.90
38936;DHT22;25541;47.458;9.644;2022-08-19T08:47:38;17.30;99.90
38936;DHT22;25541;47.458;9.644;2022-08-19T08:50:18;17.40;99.90
38936;DHT22;25541;47.458;9.644;2022-08-19T08:52:46;17.50;99.90
38936;DHT22;25541;47.458;9.644;2022-08-19T08:55:16;17.60;99.90
38936;DHT22;25541;47.458;9.644;2022-08-19T09:00:35;17.40;99.90
38936;DHT22;25541;47.458;9.644;2022-08-19T09:03:15;17.50;99.90
38936;DHT22;25541;47.458;9.644;2022-08-19T09:10:52;17.50;99.90
38936;DHT22;25541;47.458;9.644;2022-08-19T09:13:44;17.50;99.90
38936;DHT22;25541;47.458;9.644;2022-08-19T09:16:19;17.70;99.90
38936;DHT22;25541;47.458;9.644;2022-08-19T09:18:50;17.80;99.90
38936;DHT22;25541;47.458;9.644;2022-08-19T09:21:20;17.70;99.90
38936;DHT22;25541;47.458;9.644;2022-08-19T09:23:46;17.70;99.90
38936;DHT22;25541;47.458;9.644;2022-08-19T09:26:15;17.70;99.90
38936;DHT22;25541;47.458;9.644;2022-08-19T09:28:43;17.70;99.90
38936;DHT22;25541;47.458;9.644;2022-08-19T09:31:18;17.60;99.90
38936;DHT22;25541;47.458;9.644;2022-08-19T09:33:44;17.30;99.90
38936;DHT22;25541;47.458;9.644;2022-08-19T09:36:12;17.20;99.90
38936;DHT22;25541;47.458;9.644;2022-08-19T09:38:39;17.20;99.90
38936;DHT22;25541;47.458;9.644;2022-08-19T09:41:08;17.10;99.90
38936;DHT22;25541;47.458;9.644;2022-08-19T09:43:36;17.10;99.90
38936;DHT22;25541;47.458;9.644;2022-08-19T09:46:03;17.30;99.90
38936;DHT22;25541;47.458;9.644;2022-08-19T09:48:32;17.50;99.90
38936;DHT22;25541;47.458;9.644;2022-08-19T09:51:05;17.50;99.90
38936;DHT22;25541;47.458;9.644;2022-08-19T09:53:31;17.30;99.90
38936;DHT22;25541;47.458;9.644;2022-08-19T09:55:57;17.40;99.90
38936;DHT22;25541;47.458;9.644;2022-08-19T09:58:23;17.50;99.90
38936;DHT22;25541;47.458;9.644;2022-08-19T10:00:56;17.50;99.90
38936;DHT22;25541;47.458;9.644;2022-08-19T10:03:23;17.50;99.90
38936;DHT22;25541;47.458;9.644;2022-08-19T10:05:49;17.30;99.90
38936;DHT22;25541;47.458;9.644;2022-08-19T10:08:17;17.40;99.90
38936;DHT22;25541;47.458;9.644;2022-08-19T10:10:44;17.50;99.90
38936;DHT22;25541;47.458;9.644;2022-08-19T10:13:10;17.40;99.90
38936;DHT22;25541;47.458;9.644;2022-08-19T10:15:36;17.20;99.90
38936;DHT22;25541;47.458;9.644;2022-08-19T10:18:05;17.10;99.90
38936;DHT22;25541;47.458;9.644;2022-08-19T10:20:31;17.20;99.90
38936;DHT22;25541;47.458;9.644;2022-08-19T10:22:57;17.20;99.90
38936;DHT22;25541;47.458;9.644;2022-08-19T10:25:25;17.10;99.90
38936;DHT22;25541;47.458;9.644;2022-08-19T10:27:52;17.20;99.90
38936;DHT22;25541;47.458;9.644;2022-08-19T10:30:18;17.20;99.90
38936;DHT22;25541;47.458;9.644;2022-08-19T10:32:44;17.00;99.90
38936;DHT22;25541;47.458;9.644;2022-08-19T10:35:11;17.00;99.90
38936;DHT22;25541;47.458;9.644;2022-08-19T10:37:38;17.00;99.90
38936;DHT22;25541;47.458;9.644;2022-08-19T10:40:07;17.00;99.90
38936;DHT22;25541;47.458;9.644;2022-08-19T10:42:34;17.10;99.90
38936;DHT22;25541;47.458;9.644;2022-08-19T10:45:01;17.10;99.90
38936;DHT22;25541;47.458;9.644;2022-08-19T10:47:27;17.10;99.90
38936;DHT22;25541;47.458;9.644;2022-08-19T10:49:54;17.10;99.90
38936;DHT22;25541;47.458;9.644;2022-08-19T10:52:44;17.10;99.90
38936;DHT22;25541;47.458;9.644;2022-08-19T10:55:10;17.20;99.90
38936;DHT22;25541;47.458;9.644;2022-08-19T10:57:54;17.20;99.90
38936;DHT22;25541;47.458;9.644;2022-08-19T11:00:21;17.20;99.90
38936;DHT22;25541;47.458;9.644;2022-08-19T11:02:48;17.20;99.90
38936;DHT22;25541;47.458;9.644;2022-08-19T11:05:14;17.10;99.90
38936;DHT22;25541;47.458;9.644;2022-08-19T11:07:40;17.10;99.90
38936;DHT22;25541;47.458;9.644;2022-08-19T11:10:08;17.20;99.90
38936;DHT22;25541;47.458;9.644;2022-08-19T11:12:37;17.20;99.90
38936;DHT22;25541;47.458;9.644;2022-08-19T11:15:06;17.30;99.90
38936;DHT22;25541;47.458;9.644;2022-08-19T11:17:39;17.30;99.90
38936;DHT22;25541;47.458;9.644;2022-08-19T11:20:13;17.50;99.90
38936;DHT22;25541;47.458;9.644;2022-08-19T11:22:40;17.40;99.90
38936;DHT22;25541;47.458;9.644;2022-08-19T11:25:06;17.40;99.90
38936;DHT22;25541;47.458;9.644;2022-08-19T11:27:32;17.30;99.90
38936;DHT22;25541;47.458;9.644;2022-08-19T11:29:59;17.30;99.90
38936;DHT22;25541;47.458;9.644;2022-08-19T11:32:26;17.30;99.90
38936;DHT22;25541;47.458;9.644;2022-08-19T11:34:52;17.40;99.90
38936;DHT22;25541;47.458;9.644;2022-08-19T11:37:18;17.40;99.90
38936;DHT22;25541;47.458;9.644;2022-08-19T11:39:44;17.40;99.90
38936;DHT22;25541;47.458;9.644;2022-08-19T11:42:09;17.50;99.90
38936;DHT22;25541;47.458;9.644;2022-08-19T11:45:04;17.40;99.90
38936;DHT22;25541;47.458;9.644;2022-08-19T11:47:31;17.30;99.90
38936;DHT22;25541;47.458;9.644;2022-08-19T11:49:56;17.50;99.90
38936;DHT22;25541;47.458;9.644;2022-08-19T11:52:22;17.40;99.90
38936;DHT22;25541;47.458;9.644;2022-08-19T11:54:48;17.40;99.90
38936;DHT22;25541;47.458;9.644;2022-08-19T11:57:14;17.30;99.90
38936;DHT22;25541;47.458;9.644;2022-08-19T11:59:47;17.30;99.90
38936;DHT22;25541;47.458;9.644;2022-08-19T12:02:13;17.30;99.90
38936;DHT22;25541;47.458;9.644;2022-08-19T12:04:40;17.40;99.90
38936;DHT22;25541;47.458;9.644;2022-08-19T12:07:06;17.50;99.90
38936;DHT22;25541;47.458;9.644;2022-08-19T12:09:32;17.40;99.90
38936;DHT22;25541;47.458;9.644;2022-08-19T12:12:00;17.30;99.90
38936;DHT22;25541;47.458;9.644;2022-08-19T12:14:27;17.30;99.90
38936;DHT22;25541;47.458;9.644;2022-08-19T12:16:55;17.40;99.90
38936;DHT22;25541;47.458;9.644;2022-08-19T12:19:21;17.50;99.90
38936;DHT22;25541;47.458;9.644;2022-08-19T12:21:47;17.50;99.90
38936;DHT22;25541;47.458;9.644;2022-08-19T12:24:13;17.50;99.90
38936;DHT22;25541;47.458;9.644;2022-08-19T12:26:39;17.50;99.90
38936;DHT22;25541;47.458;9.644;2022-08-19T12:29:04;17.50;99.90
38936;DHT22;25541;47.458;9.644;2022-08-19T12:31:31;17.70;99.90
38936;DHT22;25541;47.458;9.644;2022-08-19T12:33:57;17.70;99.90
38936;DHT22;25541;47.458;9.644;2022-08-19T12:36:23;17.80;99.90
38936;DHT22;25541;47.458;9.644;2022-08-19T12:38:50;17.80;99.90
38936;DHT22;25541;47.458;9.644;2022-08-19T12:41:16;17.80;99.90
38936;DHT22;25541;47.458;9.644;2022-08-19T12:43:44;17.70;99.90
38936;DHT22;25541;47.458;9.644;2022-08-19T12:46:10;17.50;99.90
38936;DHT22;25541;47.458;9.644;2022-08-19T12:48:37;17.50;99.90
38936;DHT22;25541;47.458;9.644;2022-08-19T12:51:10;17.50;99.90
38936;DHT22;25541;47.458;9.644;2022-08-19T12:53:36;17.50;99.90
38936;DHT22;25541;47.458;9.644;2022-08-19T12:56:03;17.50;99.90
38936;DHT22;25541;47.458;9.644;2022-08-19T12:58:29;17.50;99.90
38936;DHT22;25541;47.458;9.644;2022-08-19T13:00:54;17.60;99.90
38936;DHT22;25541;47.458;9.644;2022-08-19T13:03:20;17.90;99.90
38936;DHT22;25541;47.458;9.644;2022-08-19T13:05:47;17.80;99.90
38936;DHT22;25541;47.458;9.644;2022-08-19T13:08:16;17.80;99.90
38936;DHT22;25541;47.458;9.644;2022-08-19T13:10:42;17.80;99.90
38936;DHT22;25541;47.458;9.644;2022-08-19T13:13:09;17.80;99.90
38936;DHT22;25541;47.458;9.644;2022-08-19T13:15:38;17.60;99.90
38936;DHT22;25541;47.458;9.644;2022-08-19T13:18:06;17.50;99.90
38936;DHT22;25541;47.458;9.644;2022-08-19T13:20:32;17.50;99.90
38936;DHT22;25541;47.458;9.644;2022-08-19T13:22:58;17.50;99.90
38936;DHT22;25541;47.458;9.644;2022-08-19T13:25:24;17.40;99.90
38936;DHT22;25541;47.458;9.644;2022-08-19T13:27:51;17.50;99.90
38936;DHT22;25541;47.458;9.644;2022-08-19T13:30:18;17.50;99.90
38936;DHT22;25541;47.458;9.644;2022-08-19T13:33:02;17.50;99.90
38936;DHT22;25541;47.458;9.644;2022-08-19T13:35:49;17.60;99.90
38936;DHT22;25541;47.458;9.644;2022-08-19T13:38:17;17.50;99.90
38936;DHT22;25541;47.458;9.644;2022-08-19T13:40:44;17.50;99.90
38936;DHT22;25541;47.458;9.644;2022-08-19T13:43:10;17.50;99.90
38936;DHT22;25541;47.458;9.644;2022-08-19T13:45:36;17.40;99.90
38936;DHT22;25541;47.458;9.644;2022-08-19T13:48:04;17.40;99.90
38936;DHT22;25541;47.458;9.644;2022-08-19T13:50:38;17.30;99.90
38936;DHT22;25541;47.458;9.644;2022-08-19T13:53:03;17.40;99.90
38936;DHT22;25541;47.458;9.644;2022-08-19T13:55:29;17.40;99.90
38936;DHT22;25541;47.458;9.644;2022-08-19T13:57:57;17.40;99.90
38936;DHT22;25541;47.458;9.644;2022-08-19T14:00:25;17.40;99.90
38936;DHT22;25541;47.458;9.644;2022-08-19T14:02:53;17.40;99.90
38936;DHT22;25541;47.458;9.644;2022-08-19T14:05:21;17.30;99.90
38936;DHT22;25541;47.458;9.644;2022-08-19T14:07:47;17.40;99.90
38936;DHT22;25541;47.458;9.644;2022-08-19T14:10:13;17.40;99.90
38936;DHT22;25541;47.458;9.644;2022-08-19T14:12:39;17.50;99.90
38936;DHT22;25541;47.458;9.644;2022-08-19T14:15:07;17.50;99.90
38936;DHT22;25541;47.458;9.644;2022-08-19T14:17:33;17.50;99.90
38936;DHT22;25541;47.458;9.644;2022-08-19T14:20:04;17.40;99.90
38936;DHT22;25541;47.458;9.644;2022-08-19T14:22:34;17.40;99.90
38936;DHT22;25541;47.458;9.644;2022-08-19T14:25:00;17.50;99.90
38936;DHT22;25541;47.458;9.644;2022-08-19T14:27:26;17.50;99.90
38936;DHT22;25541;47.458;9.644;2022-08-19T14:29:52;17.50;99.90
38936;DHT22;25541;47.458;9.644;2022-08-19T14:32:18;17.50;99.90
38936;DHT22;25541;47.458;9.644;2022-08-19T14:34:44;17.50;99.90
38936;DHT22;25541;47.458;9.644;2022-08-19T14:37:13;17.50;99.90
38936;DHT22;25541;47.458;9.644;2022-08-19T14:39:40;17.40;99.90
38936;DHT22;25541;47.458;9.644;2022-08-19T14:42:07;17.30;99.90
38936;DHT22;25541;47.458;9.644;2022-08-19T14:44:34;17.50;99.90
38936;DHT22;25541;47.458;9.644;2022-08-19T14:47:00;17.30;99.90
38936;DHT22;25541;47.458;9.644;2022-08-19T14:49:26;17.30;99.90
38936;DHT22;25541;47.458;9.644;2022-08-19T14:51:52;17.10;99.90
38936;DHT22;25541;47.458;9.644;2022-08-19T14:54:17;17.10;99.90
38936;DHT22;25541;47.458;9.644;2022-08-19T14:56:43;17.10;99.90
38936;DHT22;25541;47.458;9.644;2022-08-19T14:59:09;17.20;99.90
38936;DHT22;25541;47.458;9.644;2022-08-19T15:01:35;17.10;99.90
38936;DHT22;25541;47.458;9.644;2022-08-19T15:04:01;17.10;99.90
38936;DHT22;25541;47.458;9.644;2022-08-19T15:06:27;17.00;99.90
38936;DHT22;25541;47.458;9.644;2022-08-19T15:08:54;17.20;99.90
38936;DHT22;25541;47.458;9.644;2022-08-19T15:11:23;17.40;99.90
38936;DHT22;25541;47.458;9.644;2022-08-19T15:13:50;17.40;99.90
38936;DHT22;25541;47.458;9.644;2022-08-19T15:16:17;17.50;99.90
38936;DHT22;25541;47.458;9.644;2022-08-19T15:18:44;17.30;99.90
38936;DHT22;25541;47.458;9.644;2022-08-19T15:21:11;17.50;99.90
38936;DHT22;25541;47.458;9.644;2022-08-19T15:23:38;17.60;99.90
38936;DHT22;25541;47.458;9.644;2022-08-19T15:26:04;17.70;99.90
38936;DHT22;25541;47.458;9.644;2022-08-19T15:28:30;17.60;99.90
38936;DHT22;25541;47.458;9.644;2022-08-19T15:30:58;17.60;99.90
38936;DHT22;25541;47.458;9.644;2022-08-19T15:33:24;17.60;99.90
38936;DHT22;25541;47.458;9.644;2022-08-19T15:35:50;17.80;99.90
38936;DHT22;25541;47.458;9.644;2022-08-19T15:38:16;17.60;99.90
38936;DHT22;25541;47.458;9.644;2022-08-19T15:40:47;17.60;99.90
38936;DHT22;25541;47.458;9.644;2022-08-19T15:43:15;17.80;99.90
38936;DHT22;25541;47.458;9.644;2022-08-19T15:45:43;17.70;99.90
38936;DHT22;25541;47.458;9.644;2022-08-19T15:48:08;17.60;99.90
38936;DHT22;25541;47.458;9.644;2022-08-19T15:50:34;17.60;99.90
38936;DHT22;25541;47.458;9.644;2022-08-19T15:53:03;17.50;99.90
38936;DHT22;25541;47.458;9.644;2022-08-19T15:55:33;17.60;99.90
38936;DHT22;25541;47.458;9.644;2022-08-19T15:58:12;17.80;99.90
38936;DHT22;25541;47.458;9.644;2022-08-19T16:01:03;17.70;99.90
38936;DHT22;25541;47.458;9.644;2022-08-19T16:03:48;17.60;99.90
38936;DHT22;25541;47.458;9.644;2022-08-19T16:06:34;17.60;99.90
38936;DHT22;25541;47.458;9.644;2022-08-19T16:09:02;17.70;99.90
38936;DHT22;25541;47.458;9.644;2022-08-19T16:11:32;17.60;99.90
38936;DHT22;25541;47.458;9.644;2022-08-19T16:13:59;17.40;99.90
38936;DHT22;25541;47.458;9.644;2022-08-19T16:16:28;17.40;99.90
38936;DHT22;25541;47.458;9.644;2022-08-19T16:18:56;17.40;99.90
38936;DHT22;25541;47.458;9.644;2022-08-19T16:21:24;17.60;99.90
38936;DHT22;25541;47.458;9.644;2022-08-19T16:23:51;17.70;99.90
38936;DHT22;25541;47.458;9.644;2022-08-19T16:26:18;17.50;99.90
38936;DHT22;25541;47.458;9.644;2022-08-19T16:28:45;17.50;99.90
38936;DHT22;25541;47.458;9.644;2022-08-19T16:31:12;17.50;99.90
38936;DHT22;25541;47.458;9.644;2022-08-19T16:33:38;17.50;99.90
38936;DHT22;25541;47.458;9.644;2022-08-19T16:36:04;17.40;99.90
38936;DHT22;25541;47.458;9.644;2022-08-19T16:38:31;17.40;99.90
38936;DHT22;25541;47.458;9.644;2022-08-19T16:40:58;17.40;99.90
38936;DHT22;25541;47.458;9.644;2022-08-19T16:43:27;17.50;99.90
38936;DHT22;25541;47.458;9.644;2022-08-19T16:45:54;17.40;99.90
38936;DHT22;25541;47.458;9.644;2022-08-19T16:48:21;17.30;99.90
38936;DHT22;25541;47.458;9.644;2022-08-19T16:50:47;17.30;99.90
38936;DHT22;25541;47.458;9.644;2022-08-19T16:53:17;17.30;99.90
38936;DHT22;25541;47.458;9.644;2022-08-19T16:55:45;17.20;99.90
38936;DHT22;25541;47.458;9.644;2022-08-19T16:58:11;17.30;99.90
38936;DHT22;25541;47.458;9.644;2022-08-19T17:00:36;17.30;99.90
38936;DHT22;25541;47.458;9.644;2022-08-19T17:03:06;17.30;99.90
38936;DHT22;25541;47.458;9.644;2022-08-19T17:05:41;17.30;99.90
38936;DHT22;25541;47.458;9.644;2022-08-19T17:08:07;17.30;99.90
38936;DHT22;25541;47.458;9.644;2022-08-19T17:10:33;17.40;99.90
38936;DHT22;25541;47.458;9.644;2022-08-19T17:12:58;17.40;99.90
38936;DHT22;25541;47.458;9.644;2022-08-19T17:15:24;17.40;99.90
38936;DHT22;25541;47.458;9.644;2022-08-19T17:17:50;17.50;99.90
38936;DHT22;25541;47.458;9.644;2022-08-19T17:20:18;17.40;99.90
38936;DHT22;25541;47.458;9.644;2022-08-19T17:22:44;17.50;99.90
38936;DHT22;25541;47.458;9.644;2022-08-19T17:25:09;17.50;99.90
38936;DHT22;25541;47.458;9.644;2022-08-19T17:27:35;17.40;99.90
38936;DHT22;25541;47.458;9.644;2022-08-19T17:30:04;17.50;99.90
38936;DHT22;25541;47.458;9.644;2022-08-19T17:32:31;17.50;99.90
38936;DHT22;25541;47.458;9.644;2022-08-19T17:34:59;17.50;99.90
38936;DHT22;25541;47.458;9.644;2022-08-19T17:37:25;17.50;99.90
38936;DHT22;25541;47.458;9.644;2022-08-19T17:39:50;17.50;99.90
38936;DHT22;25541;47.458;9.644;2022-08-19T17:42:16;17.40;99.90
38936;DHT22;25541;47.458;9.644;2022-08-19T17:44:42;17.40;99.90
38936;DHT22;25541;47.458;9.644;2022-08-19T17:47:08;17.50;99.90
38936;DHT22;25541;47.458;9.644;2022-08-19T17:49:33;17.40;99.90
38936;DHT22;25541;47.458;9.644;2022-08-19T17:52:01;17.30;99.90
38936;DHT22;25541;47.458;9.644;2022-08-19T17:54:27;17.40;99.90
38936;DHT22;25541;47.458;9.644;2022-08-19T17:56:53;17.40;99.90
38936;DHT22;25541;47.458;9.644;2022-08-19T17:59:19;17.30;99.90
38936;DHT22;25541;47.458;9.644;2022-08-19T18:01:46;17.30;99.90
38936;DHT22;25541;47.458;9.644;2022-08-19T18:04:11;17.20;99.90
38936;DHT22;25541;47.458;9.644;2022-08-19T18:06:37;17.30;99.90
38936;DHT22;25541;47.458;9.644;2022-08-19T18:09:05;17.20;99.90
38936;DHT22;25541;47.458;9.644;2022-08-19T18:11:31;17.20;99.90
38936;DHT22;25541;47.458;9.644;2022-08-19T18:13:57;17.20;99.90
38936;DHT22;25541;47.458;9.644;2022-08-19T18:16:23;17.20;99.90
38936;DHT22;25541;47.458;9.644;2022-08-19T18:18:49;17.20;99.90
38936;DHT22;25541;47.458;9.644;2022-08-19T18:21:14;17.20;99.90
38936;DHT22;25541;47.458;9.644;2022-08-19T18:23:40;17.10;99.90
38936;DHT22;25541;47.458;9.644;2022-08-19T18:26:06;17.20;99.90
38936;DHT22;25541;47.458;9.644;2022-08-19T18:28:32;17.20;99.90
38936;DHT22;25541;47.458;9.644;2022-08-19T18:30:58;17.10;99.90